»·PEaware :: WAT425 KMRY-KOAK

WAT425 :: KMRY-KOAK

FLIGHT INFORMATION

Flight Status: Arrived
Operator:
Walker Air Transport
More flights by this operator :: More flights under this callsign
Pilot: Adam H. (32152)
Aircraft: Unknown
(KODI)
More flights by this aircraft type
Origin: KMRY Monterey Peninsula
United States
Destination: KOAK Metro Oakland Intl
United States
More flights between these airports :: More routes between these airports
Route: CAATE EUGEN V27 SEEMS GOBBS VPBCL
File this flight plan on PilotEdge
Remarks:
Altitude:
(Current/Filed)
5,500ft
Speed:
(Current/Filed)
150kts
Departed: 29-Dec-20 04:57 PM
Arrived: 29-Dec-20 05:48 PM
Distance/Time
Traveled:
71nm/0:51
Distance/Time
To Go:
Arrived

Flight Plot

Page will automatically refresh every two minutes.

Flight plan parsing failed; only flown route is shown


Map Options




Map Legend


Flown Route
Filed Route
Departure Airport
Arrival Airport
Navaid (VOR, NDB)
Fix

Horizontal Profiles

Position Reports

Time Latitude Longitude Heading Altitude Ground
Speed
29-Dec-20 16:27 36.591842 -121.850161 167 260ft 0kts
29-Dec-20 16:28 36.591842 -121.850161 167 260ft 0kts
29-Dec-20 16:29 36.591842 -121.850161 167 260ft 0kts
29-Dec-20 16:30 36.591842 -121.850161 167 260ft 0kts
29-Dec-20 16:31 36.591842 -121.850161 167 260ft 0kts
29-Dec-20 16:32 36.591842 -121.850161 167 260ft 0kts
29-Dec-20 16:33 36.591842 -121.850161 167 260ft 0kts
29-Dec-20 16:34 36.591842 -121.850161 167 260ft 0kts
29-Dec-20 16:35 36.591842 -121.850161 167 260ft 0kts
29-Dec-20 16:36 36.591842 -121.850161 167 260ft 0kts
29-Dec-20 16:37 36.591842 -121.850161 167 260ft 0kts
29-Dec-20 16:38 36.591842 -121.850161 167 260ft 0kts
29-Dec-20 16:39 36.591842 -121.850161 167 260ft 0kts
29-Dec-20 16:40 36.591842 -121.850161 167 260ft 0kts
29-Dec-20 16:41 36.591842 -121.850161 167 260ft 0kts
29-Dec-20 16:42 36.591842 -121.850161 167 260ft 0kts
29-Dec-20 16:43 36.591842 -121.850161 167 260ft 0kts
29-Dec-20 16:44 36.591842 -121.850161 167 260ft 0kts
29-Dec-20 16:45 36.591842 -121.850161 167 260ft 0kts
29-Dec-20 16:46 36.591842 -121.850161 167 260ft 0kts
29-Dec-20 16:47 36.591842 -121.850161 167 260ft 0kts
29-Dec-20 16:48 36.591842 -121.850161 167 260ft 0kts
29-Dec-20 16:49 36.591842 -121.850161 167 260ft 0kts
29-Dec-20 16:50 36.591810 -121.850153 167 260ft 2kts
29-Dec-20 16:51 36.590882 -121.850918 167 260ft 2kts
29-Dec-20 16:52 36.588911 -121.847394 113 260ft 17kts
29-Dec-20 16:53 36.586857 -121.841453 135 260ft 9kts
29-Dec-20 16:55 36.586739 -121.841357 154 260ft 0kts
29-Dec-20 16:56 36.585954 -121.841515 306 260ft 12kts
29-Dec-20 16:57 36.592429 -121.858464 306 709ft 93kts
29-Dec-20 16:58 36.612226 -121.876486 346 2155ft 94kts
29-Dec-20 16:59 36.631338 -121.890639 292 3546ft 103kts
29-Dec-20 17:00 36.648042 -121.917991 317 4930ft 99kts
29-Dec-20 17:01 36.671163 -121.944269 321 5520ft 136kts
29-Dec-20 17:02 36.699321 -121.977566 320 5498ft 140kts
29-Dec-20 17:03 36.727315 -122.011166 319 5499ft 140kts
29-Dec-20 17:04 36.755339 -122.044918 319 5499ft 140kts
29-Dec-20 17:05 36.786773 -122.082402 319 5507ft 168kts
29-Dec-20 17:06 36.821420 -122.123117 319 5499ft 172kts
29-Dec-20 17:07 36.856518 -122.164360 319 5500ft 172kts
29-Dec-20 17:08 36.891519 -122.205536 319 5499ft 172kts
29-Dec-20 17:09 36.926452 -122.246693 319 5503ft 175kts
29-Dec-20 17:09 36.955865 -122.281520 320 5514ft 172kts
29-Dec-20 17:11 36.997416 -122.330430 319 5492ft 176kts
29-Dec-20 17:12 37.032515 -122.372109 319 5514ft 174kts
29-Dec-20 17:12 37.062236 -122.407284 319 5530ft 174kts
29-Dec-20 17:13 37.099876 -122.444446 339 5509ft 170kts
29-Dec-20 17:14 37.144492 -122.465498 343 5509ft 170kts
29-Dec-20 17:16 37.197020 -122.488194 343 5514ft 171kts
29-Dec-20 17:16 37.234524 -122.504084 343 5508ft 172kts
29-Dec-20 17:17 37.279799 -122.523361 343 5501ft 170kts
29-Dec-20 17:18 37.324341 -122.542351 344 5536ft 169kts
29-Dec-20 17:19 37.369101 -122.561459 343 5528ft 169kts
29-Dec-20 17:20 37.414030 -122.580564 343 5518ft 170kts
29-Dec-20 17:21 37.458806 -122.599773 344 5525ft 170kts
29-Dec-20 17:22 37.503284 -122.618801 343 4353ft 161kts
29-Dec-20 17:23 37.544277 -122.636397 341 3525ft 156kts
29-Dec-20 17:24 37.586249 -122.654382 344 3518ft 160kts
29-Dec-20 17:25 37.631195 -122.657368 358 3518ft 160kts
29-Dec-20 17:26 37.674526 -122.663321 315 3525ft 163kts
29-Dec-20 17:27 37.663696 -122.715832 233 3218ft 188kts
29-Dec-20 17:28 37.624463 -122.721375 118 2461ft 123kts
29-Dec-20 17:29 37.642748 -122.690523 25 2537ft 146kts
29-Dec-20 17:30 37.679574 -122.664206 22 2518ft 153kts
29-Dec-20 17:31 37.719533 -122.658046 357 2453ft 142kts
29-Dec-20 17:32 37.760059 -122.654653 26 1945ft 148kts
29-Dec-20 17:33 37.782678 -122.611723 67 1494ft 149kts
29-Dec-20 17:34 37.795023 -122.563816 67 1606ft 130kts
29-Dec-20 17:35 37.806328 -122.518855 68 1498ft 132kts
29-Dec-20 17:36 37.817433 -122.474334 69 1497ft 132kts
29-Dec-20 17:37 37.827809 -122.432473 68 1481ft 114kts
29-Dec-20 17:38 37.837543 -122.393560 69 1073ft 115kts
29-Dec-20 17:39 37.846673 -122.356357 75 991ft 108kts
29-Dec-20 17:40 37.827785 -122.329900 155 995ft 108kts
29-Dec-20 17:41 37.799801 -122.315092 159 999ft 109kts
29-Dec-20 17:42 37.776250 -122.294065 135 1088ft 108kts
29-Dec-20 17:43 37.757581 -122.268776 133 1115ft 101kts
29-Dec-20 17:44 37.742436 -122.240665 114 925ft 90kts
29-Dec-20 17:45 37.733912 -122.211645 101 941ft 89kts
29-Dec-20 17:46 37.726780 -122.211028 293 50ft 71kts
29-Dec-20 17:47 37.730616 -122.221945 73 10ft 6kts
29-Dec-20 17:48 37.731218 -122.221501 72 10ft 9kts
29-Dec-20 17:49 37.729772 -122.216759 97 10ft 12kts
29-Dec-20 17:50 37.729486 -122.211893 122 10ft 0kts

Navigation Log

Ident Type
Flight plan parsing failed, navigation log unavailable